Wetterdaten: aktuell Donnerstag, 26.11.2020 18:49
Datum Zeit Temp. A. Feuchte A. Luftdruck Regen Wind Richtung Richtung Taupunkt Windchill Windben
26.11.2020 18:49 -0,3 C 93 % 1026,3 hPa 0,0 l/m 1,6 km/h (1 Bft) S-SW 202 -1,3 C -0,3 C 3,2 km/h (1 Bft)
26.11.2020 17:49 -0,1 C 93 % 1026,2 hPa 0,0 l/m 1,6 km/h (1 Bft) S-SO 157 -1,1 C -0,1 C 3,2 km/h (1 Bft)
26.11.2020 16:49 0,2 C 93 % 1025,9 hPa 0,0 l/m 1,6 km/h (1 Bft) O-NO 67 -0,8 C 0,2 C 3,2 km/h (1 Bft)
26.11.2020 15:49 0,6 C 94 % 1025,9 hPa 0,0 l/m 1,6 km/h (1 Bft) O-NO 67 -0,3 C 0,6 C 3,2 km/h (1 Bft)
26.11.2020 14:49 0,7 C 94 % 1025,8 hPa 0,0 l/m 0,0 km/h (0 Bft) O-NO 67 -0,2 C 0,7 C 3,2 km/h (1 Bft)
26.11.2020 13:49 0,7 C 94 % 1026,3 hPa 0,0 l/m 1,6 km/h (1 Bft) O-NO 67 -0,2 C 0,7 C 3,2 km/h (1 Bft)
26.11.2020 12:49 0,8 C 94 % 1026,9 hPa 0,0 l/m 1,6 km/h (1 Bft) S-SW 202 -0,1 C 0,8 C 1,6 km/h (1 Bft)
26.11.2020 11:49 0,2 C 94 % 1027,3 hPa 0,0 l/m 0,0 km/h (0 Bft) N 0 -0,6 C 0,2 C 0,0 km/h (0 Bft)
26.11.2020 10:49 -0,3 C 94 % 1027,9 hPa 0,0 l/m 3,2 km/h (1 Bft) S-SW 202 -1,1 C -0,3 C 4,8 km/h (1 Bft)
26.11.2020 09:49 -0,7 C 93 % 1027,5 hPa 0,0 l/m 0,0 km/h (0 Bft) N 0 -1,7 C -0,7 C 0,0 km/h (0 Bft)
26.11.2020 08:49 -1,0 C 93 % 1027,5 hPa 0,0 l/m 4,8 km/h (1 Bft) S-SW 202 -2,0 C -1,0 C 6,4 km/h (2 Bft)
26.11.2020 07:49 -0,9 C 93 % 1027,2 hPa 0,0 l/m 1,6 km/h (1 Bft) S-SW 202 -1,9 C -0,9 C 3,2 km/h (1 Bft)
26.11.2020 06:49 -0,9 C 93 % 1026,9 hPa 0,0 l/m 1,6 km/h (1 Bft) S-SW 202 -1,9 C -0,9 C 1,6 km/h (1 Bft)
26.11.2020 05:49 -0,8 C 93 % 1026,7 hPa 0,0 l/m 4,8 km/h (1 Bft) SW 225 -1,8 C -0,8 C 6,4 km/h (2 Bft)
26.11.2020 04:49 -0,7 C 93 % 1026,5 hPa 0,0 l/m 6,4 km/h (2 Bft) S-SW 202 -1,7 C -0,7 C 8,0 km/h (2 Bft)
26.11.2020 03:49 -0,9 C 93 % 1026,4 hPa 0,0 l/m 3,2 km/h (1 Bft) S 180 -1,9 C -0,9 C 4,8 km/h (1 Bft)
26.11.2020 02:49 -1,1 C 93 % 1026,3 hPa 0,0 l/m 0,0 km/h (0 Bft) N 0 -2,1 C -1,1 C 0,0 km/h (0 Bft)
26.11.2020 01:49 -1,1 C 93 % 1026,1 hPa 0,0 l/m 0,0 km/h (0 Bft) N 0 -2,1 C -1,1 C 0,0 km/h (0 Bft)
26.11.2020 00:49 -0,9 C 93 % 1025,9 hPa 0,0 l/m 0,0 km/h (0 Bft) O-NO 67 -1,9 C -0,9 C 1,6 km/h (1 Bft)
25.11.2020 23:49 -0,7 C 93 % 1025,8 hPa 0,0 l/m 0,0 km/h (0 Bft) O 90 -1,7 C -0,7 C 1,6 km/h (1 Bft)
25.11.2020 22:49 -0,6 C 93 % 1025,5 hPa 0,0 l/m 0,0 km/h (0 Bft) N 0 -1,6 C -0,6 C 0,0 km/h (0 Bft)
25.11.2020 21:49 -0,4 C 93 % 1025,4 hPa 0,0 l/m 0,0 km/h (0 Bft) SO 135 -1,4 C -0,4 C 3,2 km/h (1 Bft)
25.11.2020 20:49 -0,2 C 92 % 1025,2 hPa 0,0 l/m 3,2 km/h (1 Bft) O-SO 112 -1,3 C -0,2 C 4,8 km/h (1 Bft)
25.11.2020 19:49 0,0 C 92 % 1024,9 hPa 0,0 l/m 4,8 km/h (1 Bft) O-SO 112 -1,1 C 0,0 C 6,4 km/h (2 Bft)
25.11.2020 19:00 0,2 C 92 % 1024,9 hPa 0,0 l/m 0,0 km/h (0 Bft) N 0 -0,9 C 0,2 C 0,0 km/h (0 Bft)
_ Min-Zeit 01:22 19:01 19:02 - 19:00 - - 02:07 05:10 19:00
Minimum _ -1,2 C 91 % 1024,8 hPa - 0,0 km/h (0 Bft) - - -2,2 C -5,3 C 0,0 km/h (0 Bft)
_ Max-Zeit 12:53 08:22 10:31 19:00 05:10 - - 12:54 12:54 05:10
Maximum _ 0,9 C 94 % 1027,9 hPa 0,0 l/m 11,3 km/h
S-SW (2 Bft)
- - 0,0 C 0,9 C 12,9 km/h
S-SW (3 Bft)
Durchschnitt _ -0,3 C 93 % 1026,2 hPa #0,0 l/m 1,8 km/h (1 Bft) S-SW - -1,3 C -0,3 C 3,1 km/h (1 Bft)